Latest Coastal Weather Observations for Point Perpendicular

IDN60701

Issued at 10:15 pm EDT Saturday 1 November 2014 (issued every 10 minutes, with the page automatically refreshed every 10 minutes)

About coastal observations | Map of coastal stations | Coastal observations for NSW | Marine services | Other Formats
Station Details ID: 068151 Name: POINT PERPENDICULAR AWS Lat: -35.09 Lon: 150.80 Height: 85.0 m
Data from the previous 72 hours. | See also: Recent months at Point Perpendicular
Date/Time
EDT
Temp

°C
Wind Pressure Rain
since 9am
mm
Weather Cloud Vis
km
Sea
Height
m
Swell
Dir
 
Speed
knots
Gust
knots
hPa Trend Height
m
Period
s
Dir
01/10:00pm 16.4 SSE 10 16 1009.6 - 0.2 - - - - - - -
01/09:30pm 16.7 SSE 11 16 1009.0 - 0.2 - - - - - - -
01/09:00pm 16.5 SSE 11 16 1008.4 - 0.2 - - - - - - -
01/08:30pm 16.4 SSE 12 18 1007.6 - 0.2 - - - - - - -
01/08:00pm 16.7 S 13 19 1006.3 - 0.2 - - - - - - -
01/07:30pm 17.4 S 12 19 1005.2 - 0.2 - - - - - - -
01/07:00pm 17.8 S 13 18 1004.0 - 0.2 - - - - - - -
01/06:30pm 18.2 SSE 13 21 1003.1 - 0.2 - - - - - - -
01/06:00pm 18.8 S 7 13 1002.5 - 0.2 - - - - - - -
01/05:30pm 18.7 S 9 16 1001.4 - 0.2 - - - - - - -
01/05:00pm 18.9 S 12 18 1000.3 - 0.2 - - - - - - -
01/04:30pm 20.4 SSW 13 19 999.2 - 0.2 - - - - - - -
01/04:27pm 21.0 WSW 11 17 999.3 - 0.2 - - - - - - -
01/04:00pm 26.0 W 14 19 999.3 - 0.2 - - - - - - -
01/03:30pm 25.4 W 18 27 999.1 - 0.2 - - - - - - -
01/03:18pm 25.8 WSW 20 28 998.3 - 0.2 - - - - - - -
01/03:00pm 28.0 WNW 16 27 998.0 - 0.2 Recent precip. - - - - - -
01/02:39pm 29.7 NW 15 26 997.8 - 0.2 - - - - - - -
01/02:30pm 29.3 WNW 12 23 998.0 - 0.2 - - - - - - -
01/02:09pm 26.3 NW 25 35 998.4 - 0.0 - - - - - - -
01/02:00pm 28.2 W 16 28 998.2 - 0.0 - - - - - - -
01/01:51pm 28.7 WNW 15 25 998.1 - 0.0 - - - - - - -
01/01:30pm 30.2 WNW 15 23 998.0 - 0.0 - - - - - - -
01/01:00pm 29.9 WNW 16 26 998.5 - 0.0 - - - - - - -
01/12:30pm 30.3 WNW 19 29 998.5 - 0.0 - - - - - - -
01/12:02pm 30.6 NW 16 26 998.8 - 0.0 - - - - - - -
01/12:00pm 30.2 NW 17 26 998.9 - 0.0 - - - - - - -
01/11:47am 31.4 NW 15 25 999.2 - 0.0 - - - - - - -
01/11:30am 30.9 NW 15 23 999.3 - 0.0 - - - - - - -
01/11:00am 31.2 NNW 6 15 1000.2 - 0.0 - - - - - - -
01/10:30am 29.9 NW 5 8 1000.7 - 0.0 - - - - - - -
01/10:00am 29.8 N 7 12 1000.4 - 0.0 - - - - - - -
01/09:30am 28.7 N 6 9 1000.5 - 0.0 - - - - - - -
01/09:00am 27.7 NNW 7 12 1000.9 - 0.0 - - - - - - -
01/08:30am 26.9 NNW 9 15 1001.0 - 0.0 - - - - - - -
01/08:00am 26.4 N 7 11 1001.5 - 0.0 - - - - - - -
01/07:30am 26.2 NNW 8 12 1001.9 - 0.0 - - - - - - -
01/07:00am 24.7 NNW 7 8 1001.8 - 0.0 - - - - - - -
01/06:30am 24.2 NNW 7 9 1001.8 - 0.0 - - - - - - -
01/06:00am 24.4 N 7 11 1001.6 - 0.0 - - - - - - -
01/05:30am 23.3 N 8 12 1001.6 - 0.0 - - - - - - -
01/05:00am 24.8 N 8 9 1001.6 - 0.0 - - - - - - -
01/04:30am 24.2 N 7 9 1001.5 - 0.0 - - - - - - -
01/04:00am 23.2 N 8 12 1001.9 - 0.0 - - - - - - -
01/03:30am 23.5 N 10 13 1002.3 - 0.0 - - - - - - -
01/03:00am 23.9 N 8 13 1002.6 - 0.0 - - - - - - -
01/02:30am 20.2 N 8 12 1002.9 - 0.0 - - - - - - -
01/02:00am 19.8 N 13 17 1003.4 - 0.0 - - - - - - -
01/01:32am 20.1 N 16 26 1003.5 - 0.0 - - - - - - -
01/01:30am 20.2 NNE 17 26 1003.5 - 0.0 - - - - - - -
01/01:00am 20.4 NNE 18 26 1003.5 - 0.0 - - - - - - -
01/12:30am 20.6 NNE 15 21 1004.1 - 0.0 - - - - - - -
01/12:16am 20.5 NNE 15 25 1004.4 - 0.0 - - - - - - -
01/12:00am 20.6 NNE 16 24 1004.6 - 0.0 - - - - - - -
 
Date/Time
EDT
Temp

°C
Wind Pressure Rain
since 9am
mm
Weather Cloud Vis
km
Sea
Height
m
Swell
Dir
 
Speed
knots
Gust
knots
hPa Trend Height
m
Period
s
Dir
31/11:30pm 20.5 N 13 21 1005.0 - 0.0 - - - - - - -
31/11:00pm 20.4 NNE 11 15 1005.3 - 0.0 - - - - - - -
31/10:30pm 20.8 NNE 13 17 1005.8 - 0.0 - - - - - - -
31/10:00pm 21.4 NNE 10 15 1006.2 - 0.0 - - - - - - -
31/09:30pm 21.3 NNE 13 16 1006.3 - 0.0 - - - - - - -
31/09:00pm 21.4 NNE 13 18 1006.2 - 0.0 - - - - - - -
31/08:30pm 21.7 NNE 11 16 1006.1 - 0.0 - - - - - - -
31/08:00pm 22.0 NNE 13 17 1005.9 - 0.0 - - - - - - -
31/07:30pm 22.2 NNE 15 22 1006.0 - 0.0 - - - - - - -
31/07:00pm 22.8 NNE 13 23 1006.0 - 0.0 - - - - - - -
31/06:30pm 23.2 NNE 13 18 1005.9 - 0.0 - - - - - - -
31/06:00pm 22.9 NNE 13 18 1005.9 - 0.0 - - - - - - -
31/05:30pm 24.2 NNE 13 18 1005.9 - 0.0 - - - - - - -
31/05:00pm 24.6 NNE 15 21 1005.8 - 0.0 - - - - - - -
31/04:30pm 25.9 NNE 15 21 1006.0 - 0.0 - - - - - - -
31/04:00pm 24.3 NNE 14 19 1006.1 - 0.0 - - - - - - -
31/03:30pm 23.6 NNE 17 24 1006.5 - 0.0 - - - - - - -
31/03:00pm 24.1 NNE 17 22 1006.6 - 0.0 - - - - - - -
31/02:30pm 24.3 NNE 18 24 1007.3 - 0.0 - - - - - - -
31/02:00pm 24.5 NNE 18 24 1008.2 - 0.0 - - - - - - -
31/01:30pm 24.2 NNE 15 19 1009.1 - 0.0 - - - - - - -
31/01:00pm 22.4 NNE 13 18 1009.5 - 0.0 - - - - - - -
31/12:30pm 21.1 NE 10 15 1009.9 - 0.0 - - - - - - -
31/12:00pm 20.5 ENE 7 11 1010.9 - 0.0 - - - - - - -
31/11:30am 19.9 E 7 9 1011.7 - 0.0 - - - - - - -
31/11:00am 19.6 ESE 6 8 1012.3 - 0.0 - - - - - - -
31/10:30am 19.2 ESE 5 7 1012.8 - 0.0 - - - - - - -
31/10:00am 18.5 SE 5 9 1013.1 - 0.0 - - - - - - -
31/09:30am 18.0 SW 4 7 1013.2 - 0.0 - - - - - - -
31/09:00am 18.0 SW 3 6 1013.4 - 0.0 - - - - - - -
31/08:30am 17.4 SSW 4 6 1013.3 - 0.0 - - - - - - -
31/08:00am 17.2 NW 2 5 1013.2 - 0.0 - - - - - - -
31/07:30am 17.4 CALM 0 0 1012.9 - 0.0 - - - - - - -
31/07:00am 16.8 CALM 0 0 1012.8 - 0.0 - - - - - - -
31/06:30am 16.5 WSW 2 4 1012.8 - 0.0 - - - - - - -
31/06:00am 16.5 CALM 0 0 1012.7 - 0.0 - - - - - - -
31/05:30am 16.8 W 3 4 1012.5 - 0.0 - - - - - - -
31/05:00am 16.8 WSW 4 5 1012.4 - 0.0 - - - - - - -
31/04:30am 16.8 WSW 3 4 1012.6 - 0.0 - - - - - - -
31/04:00am 16.6 SW 4 6 1012.7 - 0.0 - - - - - - -
31/03:30am 16.7 SW 5 7 1012.9 - 0.0 - - - - - - -
31/03:00am 16.8 WSW 5 6 1013.1 - 0.0 - - - - - - -
31/02:30am 17.2 SW 4 7 1013.3 - 0.0 - - - - - - -
31/02:00am 17.8 S 5 7 1013.3 - 0.0 - - - - - - -
31/01:30am 18.1 SSW 4 5 1013.6 - 0.0 - - - - - - -
31/01:00am 18.3 SE 3 5 1014.1 - 0.0 - - - - - - -
31/12:30am 18.5 ESE 5 7 1014.3 - 0.0 - - - - - - -
31/12:00am 18.6 ESE 5 7 1014.5 - 0.0 - - - - - - -
 
Date/Time
EDT
Temp

°C
Wind Pressure Rain
since 9am
mm
Weather Cloud Vis
km
Sea
Height
m
Swell
Dir
 
Speed
knots
Gust
knots
hPa Trend Height
m
Period
s
Dir
30/11:30pm 18.6 ESE 5 6 1014.6 - 0.0 - - - - - - -
30/11:00pm 18.7 ESE 5 7 1014.5 - 0.0 - - - - - - -
30/10:30pm 18.8 ESE 5 7 1014.4 - 0.0 - - - - - - -
30/10:00pm 19.2 ESE 4 7 1014.3 - 0.0 - - - - - - -
30/09:30pm 18.8 E 4 6 1014.1 - 0.0 - - - - - - -
30/09:00pm 19.2 ENE 6 8 1013.4 - 0.0 - - - - - - -
30/08:30pm 19.3 ENE 7 8 1012.9 - 0.0 - - - - - - -
30/08:00pm 19.3 NE 7 9 1012.7 - 0.0 - - - - - - -
30/07:30pm 19.8 NE 7 8 1012.2 - 0.0 - - - - - - -
30/07:00pm 20.2 NE 7 11 1011.8 - 0.0 - - - - - - -
30/06:30pm 20.9 NE 8 11 1011.8 - 0.0 - - - - - - -
30/06:00pm 21.4 NE 7 12 1011.8 - 0.0 - - - - - - -
30/05:30pm 22.1 NE 8 13 1011.5 - 0.0 - - - - - - -
30/05:00pm 21.7 ENE 8 12 1011.4 - 0.0 - - - - - - -
30/04:30pm 22.0 ENE 7 11 1011.5 - 0.0 - - - - - - -
30/04:00pm 22.2 E 7 11 1011.4 - 0.0 - - - - - - -
30/03:30pm 22.5 E 6 11 1011.5 - 0.0 - - - - - - -
30/03:00pm 21.2 E 7 11 1011.8 - 0.0 - - - - - - -
30/02:30pm 20.7 E 7 11 1012.1 - 0.0 - - - - - - -
30/02:00pm 20.4 ESE 9 12 1012.4 - 0.0 - - - - - - -
30/01:30pm 19.8 ESE 8 13 1012.8 - 0.0 - - - - - - -
30/01:00pm 19.7 SE 8 11 1013.2 - 0.0 - - - - - - -
30/12:30pm 19.7 SSE 5 9 1013.4 - 0.0 - - - - - - -
30/12:00pm 19.8 SSE 7 9 1013.7 - 0.0 - - - - - - -
30/11:30am 19.3 SSE 6 8 1013.9 - 0.0 - - - - - - -
30/11:00am 19.0 SW 4 7 1014.0 - 0.0 - - - - - - -
30/10:30am 18.7 WSW 5 7 1014.3 - 0.0 - - - - - - -
30/10:00am 19.1 WNW 6 11 1014.3 - 0.0 - - - - - - -
30/09:30am 18.5 W 6 8 1014.3 - 0.0 - - - - - - -
30/09:00am 17.8 WNW 6 9 1014.5 - 0.0 - - - - - - -
30/08:30am 17.2 NW 6 8 1014.4 - 0.0 - - - - - - -
30/08:00am 16.9 NNW 6 9 1014.3 - 0.0 - - - - - - -
30/07:30am 15.8 N 6 8 1014.3 - 0.0 - - - - - - -
30/07:00am 15.0 N 5 6 1014.0 - 0.0 - - - - - - -
30/06:30am 15.1 NNW 4 5 1014.1 - 0.0 - - - - - - -
30/06:00am 15.0 NNW 4 5 1013.8 - 0.0 - - - - - - -
30/05:30am 15.0 NW 4 4 1013.7 - 0.0 - - - - - - -
30/05:00am 15.3 NNW 5 5 1013.8 - 0.0 - - - - - - -
30/04:30am 15.3 N 5 6 1013.8 - 0.0 - - - - - - -
30/04:00am 15.6 N 6 7 1013.7 - 0.0 - - - - - - -
30/03:30am 16.1 N 7 9 1013.9 - 0.0 - - - - - - -
30/03:00am 16.5 N 9 12 1014.2 - 0.0 - - - - - - -
30/02:30am 16.9 N 9 13 1014.5 - 0.0 - - - - - - -
30/02:00am 16.9 N 8 12 1014.8 - 0.0 - - - - - - -
30/01:30am 17.2 N 10 17 1015.1 - 0.0 - - - - - - -
30/01:00am 17.4 N 12 18 1015.4 - 0.0 - - - - - - -
30/12:30am 17.5 N 13 18 1015.7 - 0.0 - - - - - - -
30/12:00am 17.7 N 13 18 1016.0 - 0.0 - - - - - - -
 
Date/Time
EDT
Temp

°C
Wind Pressure Rain
since 9am
mm
Weather Cloud Vis
km
Sea
Height
m
Swell
Dir
 
Speed
knots
Gust
knots
hPa Trend Height
m
Period
s
Dir
29/11:30pm 18.0 NNE 12 16 1016.1 - 0.0 - - - - - - -
29/11:00pm 17.9 NNE 12 17 1016.3 - 0.0 - - - - - - -
29/10:30pm 17.9 NNE 12 17 1016.3 - 0.0 - - - - - - -

Other Formats:

Comma delimited format used in spreadsheet applications
http://www.bom.gov.au/fwo/IDN60701/IDN60701.95940.axf

JavaScript Object Notation format (JSON) in row-major order
http://www.bom.gov.au/fwo/IDN60701/IDN60701.95940.json